sensor_id;sensor_type;location;lat;lon;timestamp;temperature;humidity
56771;DHT22;42641;59.794;17.616;2024-03-17T00:00:38;-0.10;99.90
56771;DHT22;42641;59.794;17.616;2024-03-17T00:03:06;0.00;99.90
56771;DHT22;42641;59.794;17.616;2024-03-17T00:05:35;0.00;99.90
56771;DHT22;42641;59.794;17.616;2024-03-17T00:08:05;0.00;99.90
56771;DHT22;42641;59.794;17.616;2024-03-17T00:10:32;0.00;99.90
56771;DHT22;42641;59.794;17.616;2024-03-17T00:12:58;-0.10;99.90
56771;DHT22;42641;59.794;17.616;2024-03-17T00:15:25;0.00;99.90
56771;DHT22;42641;59.794;17.616;2024-03-17T00:17:51;-0.10;99.90
56771;DHT22;42641;59.794;17.616;2024-03-17T00:20:18;-0.10;99.90
56771;DHT22;42641;59.794;17.616;2024-03-17T00:22:50;-0.10;99.90
56771;DHT22;42641;59.794;17.616;2024-03-17T00:25:19;-0.10;99.90
56771;DHT22;42641;59.794;17.616;2024-03-17T00:27:46;-0.10;99.90
56771;DHT22;42641;59.794;17.616;2024-03-17T00:30:14;-0.10;99.90
56771;DHT22;42641;59.794;17.616;2024-03-17T00:32:42;-0.10;99.90
56771;DHT22;42641;59.794;17.616;2024-03-17T00:35:09;-0.10;99.90
56771;DHT22;42641;59.794;17.616;2024-03-17T00:37:37;-0.10;99.90
56771;DHT22;42641;59.794;17.616;2024-03-17T00:40:04;-0.10;99.90
56771;DHT22;42641;59.794;17.616;2024-03-17T00:42:32;-0.10;99.90
56771;DHT22;42641;59.794;17.616;2024-03-17T00:44:59;-0.20;99.90
56771;DHT22;42641;59.794;17.616;2024-03-17T00:47:28;-0.10;99.90
56771;DHT22;42641;59.794;17.616;2024-03-17T00:49:55;-0.10;99.90
56771;DHT22;42641;59.794;17.616;2024-03-17T00:52:22;-0.10;99.90
56771;DHT22;42641;59.794;17.616;2024-03-17T00:54:48;-0.10;99.90
56771;DHT22;42641;59.794;17.616;2024-03-17T00:57:15;0.00;99.90
56771;DHT22;42641;59.794;17.616;2024-03-17T00:59:42;0.00;99.90
56771;DHT22;42641;59.794;17.616;2024-03-17T01:02:12;-0.10;99.90
56771;DHT22;42641;59.794;17.616;2024-03-17T01:04:40;-0.10;99.90
56771;DHT22;42641;59.794;17.616;2024-03-17T01:07:06;-0.10;99.90
56771;DHT22;42641;59.794;17.616;2024-03-17T01:09:33;-0.10;99.90
56771;DHT22;42641;59.794;17.616;2024-03-17T01:11:59;0.00;99.90
56771;DHT22;42641;59.794;17.616;2024-03-17T01:14:27;0.00;99.90
56771;DHT22;42641;59.794;17.616;2024-03-17T01:16:54;-0.10;99.90
56771;DHT22;42641;59.794;17.616;2024-03-17T01:19:21;0.00;99.90
56771;DHT22;42641;59.794;17.616;2024-03-17T01:21:47;0.00;99.90
56771;DHT22;42641;59.794;17.616;2024-03-17T01:24:14;0.00;99.90
56771;DHT22;42641;59.794;17.616;2024-03-17T01:26:42;0.00;99.90
56771;DHT22;42641;59.794;17.616;2024-03-17T01:29:09;0.00;99.90
56771;DHT22;42641;59.794;17.616;2024-03-17T01:31:35;0.00;99.90
56771;DHT22;42641;59.794;17.616;2024-03-17T01:34:02;0.00;99.90
56771;DHT22;42641;59.794;17.616;2024-03-17T01:36:28;0.00;99.90
56771;DHT22;42641;59.794;17.616;2024-03-17T01:38:55;0.00;99.90
56771;DHT22;42641;59.794;17.616;2024-03-17T01:41:21;0.00;99.90
56771;DHT22;42641;59.794;17.616;2024-03-17T01:43:48;0.00;99.90
56771;DHT22;42641;59.794;17.616;2024-03-17T01:46:15;0.00;99.90
56771;DHT22;42641;59.794;17.616;2024-03-17T01:48:43;0.00;99.90
56771;DHT22;42641;59.794;17.616;2024-03-17T01:51:11;0.00;99.90
56771;DHT22;42641;59.794;17.616;2024-03-17T01:53:39;0.00;99.90
56771;DHT22;42641;59.794;17.616;2024-03-17T01:56:10;0.00;99.90
56771;DHT22;42641;59.794;17.616;2024-03-17T01:58:36;0.00;99.90
56771;DHT22;42641;59.794;17.616;2024-03-17T02:01:03;0.00;99.90
56771;DHT22;42641;59.794;17.616;2024-03-17T02:03:30;-0.10;99.90
56771;DHT22;42641;59.794;17.616;2024-03-17T02:05:58;-0.10;99.90
56771;DHT22;42641;59.794;17.616;2024-03-17T02:08:25;-0.10;99.90
56771;DHT22;42641;59.794;17.616;2024-03-17T02:10:54;-0.10;99.90
56771;DHT22;42641;59.794;17.616;2024-03-17T02:13:21;-0.10;99.90
56771;DHT22;42641;59.794;17.616;2024-03-17T02:15:48;-0.10;99.90
56771;DHT22;42641;59.794;17.616;2024-03-17T02:18:15;-0.10;99.90
56771;DHT22;42641;59.794;17.616;2024-03-17T02:20:41;-0.10;99.90
56771;DHT22;42641;59.794;17.616;2024-03-17T02:23:28;-0.10;99.90
56771;DHT22;42641;59.794;17.616;2024-03-17T02:25:55;-0.10;99.90
56771;DHT22;42641;59.794;17.616;2024-03-17T02:28:21;-0.20;99.90
56771;DHT22;42641;59.794;17.616;2024-03-17T02:30:47;-0.10;99.90
56771;DHT22;42641;59.794;17.616;2024-03-17T02:33:14;-0.10;99.90
56771;DHT22;42641;59.794;17.616;2024-03-17T02:35:41;-0.10;99.90
56771;DHT22;42641;59.794;17.616;2024-03-17T02:38:09;-0.10;99.90
56771;DHT22;42641;59.794;17.616;2024-03-17T02:40:38;-0.10;99.90
56771;DHT22;42641;59.794;17.616;2024-03-17T02:43:04;-0.10;99.90
56771;DHT22;42641;59.794;17.616;2024-03-17T02:45:32;-0.10;99.90
56771;DHT22;42641;59.794;17.616;2024-03-17T02:47:58;-0.10;99.90
56771;DHT22;42641;59.794;17.616;2024-03-17T02:50:25;-0.10;99.90
56771;DHT22;42641;59.794;17.616;2024-03-17T02:52:51;-0.10;99.90
56771;DHT22;42641;59.794;17.616;2024-03-17T02:55:18;-0.10;99.90
56771;DHT22;42641;59.794;17.616;2024-03-17T02:57:44;-0.10;99.90
56771;DHT22;42641;59.794;17.616;2024-03-17T03:00:11;-0.10;99.90
56771;DHT22;42641;59.794;17.616;2024-03-17T03:02:39;-0.10;99.90
56771;DHT22;42641;59.794;17.616;2024-03-17T03:05:05;-0.10;99.90
56771;DHT22;42641;59.794;17.616;2024-03-17T03:07:32;-0.10;99.90
56771;DHT22;42641;59.794;17.616;2024-03-17T03:09:59;-0.10;99.90
56771;DHT22;42641;59.794;17.616;2024-03-17T03:12:25;-0.10;99.90
56771;DHT22;42641;59.794;17.616;2024-03-17T03:14:51;0.00;99.90
56771;DHT22;42641;59.794;17.616;2024-03-17T03:17:18;0.00;99.90
56771;DHT22;42641;59.794;17.616;2024-03-17T03:19:44;0.00;99.90
56771;DHT22;42641;59.794;17.616;2024-03-17T03:22:10;0.00;99.90
56771;DHT22;42641;59.794;17.616;2024-03-17T03:24:37;0.00;99.90
56771;DHT22;42641;59.794;17.616;2024-03-17T03:27:03;0.00;99.90
56771;DHT22;42641;59.794;17.616;2024-03-17T03:29:30;0.10;99.90
56771;DHT22;42641;59.794;17.616;2024-03-17T03:31:57;0.10;99.90
56771;DHT22;42641;59.794;17.616;2024-03-17T03:34:24;0.10;99.90
56771;DHT22;42641;59.794;17.616;2024-03-17T03:36:51;0.20;99.90
56771;DHT22;42641;59.794;17.616;2024-03-17T03:39:18;0.20;99.90
56771;DHT22;42641;59.794;17.616;2024-03-17T03:41:45;0.20;99.90
56771;DHT22;42641;59.794;17.616;2024-03-17T03:44:12;0.20;99.90
56771;DHT22;42641;59.794;17.616;2024-03-17T03:46:39;0.20;99.90
56771;DHT22;42641;59.794;17.616;2024-03-17T03:49:07;0.20;99.90
56771;DHT22;42641;59.794;17.616;2024-03-17T03:51:34;0.20;99.90
56771;DHT22;42641;59.794;17.616;2024-03-17T03:54:00;0.20;99.90
56771;DHT22;42641;59.794;17.616;2024-03-17T03:56:27;0.20;99.90
56771;DHT22;42641;59.794;17.616;2024-03-17T03:58:53;0.20;99.90
56771;DHT22;42641;59.794;17.616;2024-03-17T04:01:19;0.20;99.90
56771;DHT22;42641;59.794;17.616;2024-03-17T04:03:48;0.20;99.90
56771;DHT22;42641;59.794;17.616;2024-03-17T04:06:16;0.20;99.90
56771;DHT22;42641;59.794;17.616;2024-03-17T04:08:43;0.20;99.90
56771;DHT22;42641;59.794;17.616;2024-03-17T04:11:09;0.20;99.90
56771;DHT22;42641;59.794;17.616;2024-03-17T04:13:37;0.20;99.90
56771;DHT22;42641;59.794;17.616;2024-03-17T04:16:07;0.20;99.90
56771;DHT22;42641;59.794;17.616;2024-03-17T04:18:34;0.20;99.90
56771;DHT22;42641;59.794;17.616;2024-03-17T04:21:05;0.20;99.90
56771;DHT22;42641;59.794;17.616;2024-03-17T04:23:35;0.20;99.90
56771;DHT22;42641;59.794;17.616;2024-03-17T04:26:02;0.10;99.90
56771;DHT22;42641;59.794;17.616;2024-03-17T04:28:29;0.20;99.90
56771;DHT22;42641;59.794;17.616;2024-03-17T04:31:05;0.10;99.90
56771;DHT22;42641;59.794;17.616;2024-03-17T04:33:33;0.10;99.90
56771;DHT22;42641;59.794;17.616;2024-03-17T04:36:01;0.10;99.90
56771;DHT22;42641;59.794;17.616;2024-03-17T04:38:28;0.10;99.90
56771;DHT22;42641;59.794;17.616;2024-03-17T04:40:54;0.00;99.90
56771;DHT22;42641;59.794;17.616;2024-03-17T04:43:32;-0.10;99.90
56771;DHT22;42641;59.794;17.616;2024-03-17T04:46:00;-0.20;99.90
56771;DHT22;42641;59.794;17.616;2024-03-17T04:48:27;-0.20;99.90
56771;DHT22;42641;59.794;17.616;2024-03-17T04:50:53;-0.30;99.90
56771;DHT22;42641;59.794;17.616;2024-03-17T04:53:20;-0.30;99.90
56771;DHT22;42641;59.794;17.616;2024-03-17T04:55:46;-0.30;99.90
56771;DHT22;42641;59.794;17.616;2024-03-17T04:58:13;-0.40;99.90
56771;DHT22;42641;59.794;17.616;2024-03-17T05:00:39;-0.30;99.90
56771;DHT22;42641;59.794;17.616;2024-03-17T05:03:05;-0.40;99.90
56771;DHT22;42641;59.794;17.616;2024-03-17T05:05:32;-0.40;99.90
56771;DHT22;42641;59.794;17.616;2024-03-17T05:07:59;-0.50;99.90
56771;DHT22;42641;59.794;17.616;2024-03-17T05:10:25;-0.50;99.90
56771;DHT22;42641;59.794;17.616;2024-03-17T05:12:51;-0.50;99.90
56771;DHT22;42641;59.794;17.616;2024-03-17T05:15:18;-0.50;99.90
56771;DHT22;42641;59.794;17.616;2024-03-17T05:17:44;-0.50;99.90
56771;DHT22;42641;59.794;17.616;2024-03-17T05:20:11;-0.60;99.90
56771;DHT22;42641;59.794;17.616;2024-03-17T05:22:39;-0.60;99.90
56771;DHT22;42641;59.794;17.616;2024-03-17T05:25:05;-0.40;99.90
56771;DHT22;42641;59.794;17.616;2024-03-17T05:27:33;-0.40;99.90
56771;DHT22;42641;59.794;17.616;2024-03-17T05:29:59;-0.40;99.90
56771;DHT22;42641;59.794;17.616;2024-03-17T05:32:26;-0.40;99.90
56771;DHT22;42641;59.794;17.616;2024-03-17T05:34:52;-0.30;99.90
56771;DHT22;42641;59.794;17.616;2024-03-17T05:37:18;-0.30;99.90
56771;DHT22;42641;59.794;17.616;2024-03-17T05:39:45;-0.30;99.90
56771;DHT22;42641;59.794;17.616;2024-03-17T05:42:12;-0.30;99.90
56771;DHT22;42641;59.794;17.616;2024-03-17T05:44:39;-0.40;99.90
56771;DHT22;42641;59.794;17.616;2024-03-17T05:47:25;-0.40;99.90
56771;DHT22;42641;59.794;17.616;2024-03-17T05:49:52;-0.40;99.90
56771;DHT22;42641;59.794;17.616;2024-03-17T05:52:19;-0.40;99.90
56771;DHT22;42641;59.794;17.616;2024-03-17T05:54:45;-0.50;99.90
56771;DHT22;42641;59.794;17.616;2024-03-17T05:57:11;-0.50;99.90
56771;DHT22;42641;59.794;17.616;2024-03-17T05:59:39;-0.50;99.90
56771;DHT22;42641;59.794;17.616;2024-03-17T06:02:06;-0.50;99.90
56771;DHT22;42641;59.794;17.616;2024-03-17T06:04:33;-0.50;99.90
56771;DHT22;42641;59.794;17.616;2024-03-17T06:07:00;-0.50;99.90
56771;DHT22;42641;59.794;17.616;2024-03-17T06:09:27;-0.50;99.90
56771;DHT22;42641;59.794;17.616;2024-03-17T06:11:53;-0.40;99.90
56771;DHT22;42641;59.794;17.616;2024-03-17T06:14:19;-0.40;99.90
56771;DHT22;42641;59.794;17.616;2024-03-17T06:16:46;-0.40;99.90
56771;DHT22;42641;59.794;17.616;2024-03-17T06:19:12;-0.40;99.90
56771;DHT22;42641;59.794;17.616;2024-03-17T06:21:39;-0.40;99.90
56771;DHT22;42641;59.794;17.616;2024-03-17T06:24:05;-0.40;99.90
56771;DHT22;42641;59.794;17.616;2024-03-17T06:26:32;-0.40;99.90
56771;DHT22;42641;59.794;17.616;2024-03-17T06:29:00;-0.40;99.90
56771;DHT22;42641;59.794;17.616;2024-03-17T06:31:27;-0.40;99.90
56771;DHT22;42641;59.794;17.616;2024-03-17T06:33:53;-0.40;99.90
56771;DHT22;42641;59.794;17.616;2024-03-17T06:36:20;-0.50;99.90
56771;DHT22;42641;59.794;17.616;2024-03-17T06:38:46;-0.50;99.90
56771;DHT22;42641;59.794;17.616;2024-03-17T06:41:12;-0.40;99.90
56771;DHT22;42641;59.794;17.616;2024-03-17T06:43:41;-0.40;99.90
56771;DHT22;42641;59.794;17.616;2024-03-17T06:46:09;-0.40;99.90
56771;DHT22;42641;59.794;17.616;2024-03-17T06:48:35;-0.40;99.90
56771;DHT22;42641;59.794;17.616;2024-03-17T06:51:02;-0.40;99.90
56771;DHT22;42641;59.794;17.616;2024-03-17T06:53:28;-0.40;99.90
56771;DHT22;42641;59.794;17.616;2024-03-17T06:55:59;-0.40;99.90
56771;DHT22;42641;59.794;17.616;2024-03-17T06:58:27;-0.40;99.90
56771;DHT22;42641;59.794;17.616;2024-03-17T07:00:58;-0.40;99.90
56771;DHT22;42641;59.794;17.616;2024-03-17T07:03:26;-0.40;99.90
56771;DHT22;42641;59.794;17.616;2024-03-17T07:05:55;-0.30;99.90
56771;DHT22;42641;59.794;17.616;2024-03-17T07:08:22;-0.30;99.90
56771;DHT22;42641;59.794;17.616;2024-03-17T07:11:03;-0.30;99.90
56771;DHT22;42641;59.794;17.616;2024-03-17T07:13:32;-0.30;99.90
56771;DHT22;42641;59.794;17.616;2024-03-17T07:16:02;-0.30;99.90
56771;DHT22;42641;59.794;17.616;2024-03-17T07:18:29;-0.30;99.90
56771;DHT22;42641;59.794;17.616;2024-03-17T07:20:57;-0.20;99.90
56771;DHT22;42641;59.794;17.616;2024-03-17T07:23:25;-0.20;99.90
56771;DHT22;42641;59.794;17.616;2024-03-17T07:25:55;-0.30;99.90
56771;DHT22;42641;59.794;17.616;2024-03-17T07:28:23;-0.20;99.90
56771;DHT22;42641;59.794;17.616;2024-03-17T07:30:51;-0.20;99.90
56771;DHT22;42641;59.794;17.616;2024-03-17T07:33:19;-0.10;99.90
56771;DHT22;42641;59.794;17.616;2024-03-17T07:35:55;0.00;99.90
56771;DHT22;42641;59.794;17.616;2024-03-17T07:38:24;0.00;99.90
56771;DHT22;42641;59.794;17.616;2024-03-17T07:40:58;0.10;99.90
56771;DHT22;42641;59.794;17.616;2024-03-17T07:43:26;0.20;99.90
56771;DHT22;42641;59.794;17.616;2024-03-17T07:48:31;0.30;99.90
56771;DHT22;42641;59.794;17.616;2024-03-17T07:51:05;0.20;99.90
56771;DHT22;42641;59.794;17.616;2024-03-17T07:53:33;0.20;99.90
56771;DHT22;42641;59.794;17.616;2024-03-17T07:56:04;0.30;99.90
56771;DHT22;42641;59.794;17.616;2024-03-17T07:58:32;0.40;99.90
56771;DHT22;42641;59.794;17.616;2024-03-17T08:01:10;0.50;99.90
56771;DHT22;42641;59.794;17.616;2024-03-17T08:03:39;0.70;99.90
56771;DHT22;42641;59.794;17.616;2024-03-17T08:06:07;0.80;99.90
56771;DHT22;42641;59.794;17.616;2024-03-17T08:08:34;0.70;99.90
56771;DHT22;42641;59.794;17.616;2024-03-17T08:11:01;0.90;99.90
56771;DHT22;42641;59.794;17.616;2024-03-17T08:13:31;0.90;99.90
56771;DHT22;42641;59.794;17.616;2024-03-17T08:16:05;0.90;99.90
56771;DHT22;42641;59.794;17.616;2024-03-17T08:18:32;0.90;99.90
56771;DHT22;42641;59.794;17.616;2024-03-17T08:21:03;0.80;99.90
56771;DHT22;42641;59.794;17.616;2024-03-17T08:23:33;0.90;99.90
56771;DHT22;42641;59.794;17.616;2024-03-17T08:26:02;0.90;99.90
56771;DHT22;42641;59.794;17.616;2024-03-17T08:28:29;1.00;99.90
56771;DHT22;42641;59.794;17.616;2024-03-17T08:31:00;1.10;99.90
56771;DHT22;42641;59.794;17.616;2024-03-17T08:33:27;1.40;99.90
56771;DHT22;42641;59.794;17.616;2024-03-17T08:35:55;1.60;99.90
56771;DHT22;42641;59.794;17.616;2024-03-17T08:38:22;1.70;99.90
56771;DHT22;42641;59.794;17.616;2024-03-17T08:40:50;1.90;99.90
56771;DHT22;42641;59.794;17.616;2024-03-17T08:43:17;2.10;99.90
56771;DHT22;42641;59.794;17.616;2024-03-17T08:45:44;2.10;99.90
56771;DHT22;42641;59.794;17.616;2024-03-17T08:48:10;2.30;99.90
56771;DHT22;42641;59.794;17.616;2024-03-17T08:50:37;2.00;99.90
56771;DHT22;42641;59.794;17.616;2024-03-17T08:53:03;1.70;99.90
56771;DHT22;42641;59.794;17.616;2024-03-17T08:55:30;1.90;99.90
56771;DHT22;42641;59.794;17.616;2024-03-17T08:57:56;2.10;99.90
56771;DHT22;42641;59.794;17.616;2024-03-17T09:00:22;2.00;99.90
56771;DHT22;42641;59.794;17.616;2024-03-17T09:02:49;1.90;99.90
56771;DHT22;42641;59.794;17.616;2024-03-17T09:05:15;1.60;99.90
56771;DHT22;42641;59.794;17.616;2024-03-17T09:07:41;1.40;99.90
56771;DHT22;42641;59.794;17.616;2024-03-17T09:10:08;1.30;99.90
56771;DHT22;42641;59.794;17.616;2024-03-17T09:12:35;1.30;99.90
56771;DHT22;42641;59.794;17.616;2024-03-17T09:15:02;1.30;99.90
56771;DHT22;42641;59.794;17.616;2024-03-17T09:17:29;1.20;99.90
56771;DHT22;42641;59.794;17.616;2024-03-17T09:19:55;1.10;99.90
56771;DHT22;42641;59.794;17.616;2024-03-17T09:22:21;1.00;99.90
56771;DHT22;42641;59.794;17.616;2024-03-17T09:24:48;1.10;99.90
56771;DHT22;42641;59.794;17.616;2024-03-17T09:27:14;1.00;99.90
56771;DHT22;42641;59.794;17.616;2024-03-17T09:29:46;1.00;99.90
56771;DHT22;42641;59.794;17.616;2024-03-17T09:32:13;1.00;99.90
56771;DHT22;42641;59.794;17.616;2024-03-17T09:34:47;1.00;99.90
56771;DHT22;42641;59.794;17.616;2024-03-17T09:37:16;1.00;99.90
56771;DHT22;42641;59.794;17.616;2024-03-17T09:39:42;1.10;99.90
56771;DHT22;42641;59.794;17.616;2024-03-17T09:42:18;1.10;99.90
56771;DHT22;42641;59.794;17.616;2024-03-17T09:44:48;1.40;99.90
56771;DHT22;42641;59.794;17.616;2024-03-17T09:47:21;1.40;99.90
56771;DHT22;42641;59.794;17.616;2024-03-17T09:49:49;1.60;99.90
56771;DHT22;42641;59.794;17.616;2024-03-17T09:52:24;1.70;99.90
56771;DHT22;42641;59.794;17.616;2024-03-17T09:55:00;1.90;99.90
56771;DHT22;42641;59.794;17.616;2024-03-17T09:57:27;1.80;99.90
56771;DHT22;42641;59.794;17.616;2024-03-17T09:59:55;2.10;99.90
56771;DHT22;42641;59.794;17.616;2024-03-17T10:02:22;2.40;99.90
56771;DHT22;42641;59.794;17.616;2024-03-17T10:04:49;2.50;99.90
56771;DHT22;42641;59.794;17.616;2024-03-17T10:07:15;2.70;99.90
56771;DHT22;42641;59.794;17.616;2024-03-17T10:09:43;3.00;99.90
56771;DHT22;42641;59.794;17.616;2024-03-17T10:12:30;3.10;99.90
56771;DHT22;42641;59.794;17.616;2024-03-17T10:15:00;3.00;99.90
56771;DHT22;42641;59.794;17.616;2024-03-17T10:17:33;2.80;99.90
56771;DHT22;42641;59.794;17.616;2024-03-17T10:20:15;2.50;99.90
56771;DHT22;42641;59.794;17.616;2024-03-17T10:23:04;2.40;99.90
56771;DHT22;42641;59.794;17.616;2024-03-17T10:25:32;2.00;99.90
56771;DHT22;42641;59.794;17.616;2024-03-17T10:28:00;2.00;99.90
56771;DHT22;42641;59.794;17.616;2024-03-17T10:30:28;2.10;99.90
56771;DHT22;42641;59.794;17.616;2024-03-17T10:32:57;2.10;99.90
56771;DHT22;42641;59.794;17.616;2024-03-17T10:38:02;1.90;99.90
56771;DHT22;42641;59.794;17.616;2024-03-17T10:40:31;1.90;99.90
56771;DHT22;42641;59.794;17.616;2024-03-17T10:43:05;2.00;99.90
56771;DHT22;42641;59.794;17.616;2024-03-17T10:45:35;2.00;99.90
56771;DHT22;42641;59.794;17.616;2024-03-17T10:48:08;2.00;99.90
56771;DHT22;42641;59.794;17.616;2024-03-17T10:50:39;1.80;99.90
56771;DHT22;42641;59.794;17.616;2024-03-17T10:53:06;2.00;99.90
56771;DHT22;42641;59.794;17.616;2024-03-17T10:58:27;2.10;99.90
56771;DHT22;42641;59.794;17.616;2024-03-17T11:00:58;2.20;99.90
56771;DHT22;42641;59.794;17.616;2024-03-17T11:03:25;2.10;99.90
56771;DHT22;42641;59.794;17.616;2024-03-17T11:05:53;2.20;99.90
56771;DHT22;42641;59.794;17.616;2024-03-17T11:08:20;2.30;99.90
56771;DHT22;42641;59.794;17.616;2024-03-17T11:10:51;2.60;99.90
56771;DHT22;42641;59.794;17.616;2024-03-17T11:13:28;3.00;99.90
56771;DHT22;42641;59.794;17.616;2024-03-17T11:15:56;3.20;99.90
56771;DHT22;42641;59.794;17.616;2024-03-17T11:18:35;3.60;99.90
56771;DHT22;42641;59.794;17.616;2024-03-17T11:21:07;3.40;99.90
56771;DHT22;42641;59.794;17.616;2024-03-17T11:23:38;3.50;99.90
56771;DHT22;42641;59.794;17.616;2024-03-17T11:26:07;2.80;99.90
56771;DHT22;42641;59.794;17.616;2024-03-17T11:31:42;2.60;99.90
56771;DHT22;42641;59.794;17.616;2024-03-17T11:34:32;2.50;99.90
56771;DHT22;42641;59.794;17.616;2024-03-17T11:36:59;3.40;99.90
56771;DHT22;42641;59.794;17.616;2024-03-17T11:39:57;4.20;99.90
56771;DHT22;42641;59.794;17.616;2024-03-17T11:42:25;4.90;99.90
56771;DHT22;42641;59.794;17.616;2024-03-17T11:44:57;5.00;99.90
56771;DHT22;42641;59.794;17.616;2024-03-17T11:47:33;4.20;99.90
56771;DHT22;42641;59.794;17.616;2024-03-17T11:50:03;4.00;99.90
56771;DHT22;42641;59.794;17.616;2024-03-17T11:52:31;4.40;99.90
56771;DHT22;42641;59.794;17.616;2024-03-17T11:54:57;5.10;99.90
56771;DHT22;42641;59.794;17.616;2024-03-17T11:57:25;5.50;99.90
56771;DHT22;42641;59.794;17.616;2024-03-17T11:59:54;5.90;99.90
56771;DHT22;42641;59.794;17.616;2024-03-17T12:02:28;5.40;99.90
56771;DHT22;42641;59.794;17.616;2024-03-17T12:05:02;5.10;99.90
56771;DHT22;42641;59.794;17.616;2024-03-17T12:07:29;4.20;99.90
56771;DHT22;42641;59.794;17.616;2024-03-17T12:09:58;4.50;99.90
56771;DHT22;42641;59.794;17.616;2024-03-17T12:12:26;4.60;99.90
56771;DHT22;42641;59.794;17.616;2024-03-17T12:15:03;4.80;99.90
56771;DHT22;42641;59.794;17.616;2024-03-17T12:17:37;4.60;99.90
56771;DHT22;42641;59.794;17.616;2024-03-17T12:20:04;4.60;99.90
56771;DHT22;42641;59.794;17.616;2024-03-17T12:22:31;4.70;99.90
56771;DHT22;42641;59.794;17.616;2024-03-17T12:25:18;4.90;99.90
56771;DHT22;42641;59.794;17.616;2024-03-17T12:27:46;5.40;99.90
56771;DHT22;42641;59.794;17.616;2024-03-17T12:30:16;5.60;99.90
56771;DHT22;42641;59.794;17.616;2024-03-17T12:32:44;5.60;99.90
56771;DHT22;42641;59.794;17.616;2024-03-17T12:35:16;5.60;99.90
56771;DHT22;42641;59.794;17.616;2024-03-17T12:37:45;6.00;99.90
56771;DHT22;42641;59.794;17.616;2024-03-17T12:40:19;5.10;99.90
56771;DHT22;42641;59.794;17.616;2024-03-17T12:42:50;5.20;99.90
56771;DHT22;42641;59.794;17.616;2024-03-17T12:45:21;5.20;99.90
56771;DHT22;42641;59.794;17.616;2024-03-17T12:47:49;4.80;99.90
56771;DHT22;42641;59.794;17.616;2024-03-17T12:50:16;4.40;99.90
56771;DHT22;42641;59.794;17.616;2024-03-17T12:52:52;4.50;99.90
56771;DHT22;42641;59.794;17.616;2024-03-17T12:55:20;4.70;99.90
56771;DHT22;42641;59.794;17.616;2024-03-17T12:58:07;4.80;99.90
56771;DHT22;42641;59.794;17.616;2024-03-17T13:01:03;5.40;99.90
56771;DHT22;42641;59.794;17.616;2024-03-17T13:03:32;5.20;99.90
56771;DHT22;42641;59.794;17.616;2024-03-17T13:06:00;4.70;99.90
56771;DHT22;42641;59.794;17.616;2024-03-17T13:08:29;5.20;99.90
56771;DHT22;42641;59.794;17.616;2024-03-17T13:10:55;5.40;99.90
56771;DHT22;42641;59.794;17.616;2024-03-17T13:13:21;5.50;99.90
56771;DHT22;42641;59.794;17.616;2024-03-17T13:15:48;5.40;99.70
56771;DHT22;42641;59.794;17.616;2024-03-17T13:18:18;5.40;99.80
56771;DHT22;42641;59.794;17.616;2024-03-17T13:20:48;6.00;99.90
56771;DHT22;42641;59.794;17.616;2024-03-17T13:23:16;6.40;99.50
56771;DHT22;42641;59.794;17.616;2024-03-17T13:25:42;6.20;97.80
56771;DHT22;42641;59.794;17.616;2024-03-17T13:28:11;5.60;97.60
56771;DHT22;42641;59.794;17.616;2024-03-17T13:30:37;5.50;97.80
56771;DHT22;42641;59.794;17.616;2024-03-17T13:33:04;5.60;98.60
56771;DHT22;42641;59.794;17.616;2024-03-17T13:35:36;5.80;97.80
56771;DHT22;42641;59.794;17.616;2024-03-17T13:38:06;5.20;96.60
56771;DHT22;42641;59.794;17.616;2024-03-17T13:40:38;4.60;97.90
56771;DHT22;42641;59.794;17.616;2024-03-17T13:43:04;4.60;99.00
56771;DHT22;42641;59.794;17.616;2024-03-17T13:45:40;4.60;99.00
56771;DHT22;42641;59.794;17.616;2024-03-17T13:48:08;4.20;99.30
56771;DHT22;42641;59.794;17.616;2024-03-17T13:50:40;4.40;99.90
56771;DHT22;42641;59.794;17.616;2024-03-17T13:53:10;4.70;99.90
56771;DHT22;42641;59.794;17.616;2024-03-17T13:55:37;4.80;99.50
56771;DHT22;42641;59.794;17.616;2024-03-17T13:58:04;4.90;98.60
56771;DHT22;42641;59.794;17.616;2024-03-17T14:00:33;4.30;98.40
56771;DHT22;42641;59.794;17.616;2024-03-17T14:03:04;4.10;99.30
56771;DHT22;42641;59.794;17.616;2024-03-17T14:05:31;4.20;98.90
56771;DHT22;42641;59.794;17.616;2024-03-17T14:08:00;4.00;99.30
56771;DHT22;42641;59.794;17.616;2024-03-17T14:10:27;4.00;99.40
56771;DHT22;42641;59.794;17.616;2024-03-17T14:12:53;4.20;99.30
56771;DHT22;42641;59.794;17.616;2024-03-17T14:15:20;4.20;99.40
56771;DHT22;42641;59.794;17.616;2024-03-17T14:17:47;4.10;98.90
56771;DHT22;42641;59.794;17.616;2024-03-17T14:20:15;4.30;99.20
56771;DHT22;42641;59.794;17.616;2024-03-17T14:22:44;4.70;99.90
56771;DHT22;42641;59.794;17.616;2024-03-17T14:25:17;5.00;98.60
56771;DHT22;42641;59.794;17.616;2024-03-17T14:27:45;4.70;97.40
56771;DHT22;42641;59.794;17.616;2024-03-17T14:30:19;4.30;97.60
56771;DHT22;42641;59.794;17.616;2024-03-17T14:32:46;4.20;99.00
56771;DHT22;42641;59.794;17.616;2024-03-17T14:35:15;4.40;98.70
56771;DHT22;42641;59.794;17.616;2024-03-17T14:37:42;4.30;99.00
56771;DHT22;42641;59.794;17.616;2024-03-17T14:40:12;4.40;98.10
56771;DHT22;42641;59.794;17.616;2024-03-17T14:42:43;4.20;98.70
56771;DHT22;42641;59.794;17.616;2024-03-17T14:45:11;4.00;97.90
56771;DHT22;42641;59.794;17.616;2024-03-17T14:47:37;3.80;98.40
56771;DHT22;42641;59.794;17.616;2024-03-17T14:50:04;3.50;98.70
56771;DHT22;42641;59.794;17.616;2024-03-17T14:52:31;3.40;98.70
56771;DHT22;42641;59.794;17.616;2024-03-17T14:54:57;3.30;98.60
56771;DHT22;42641;59.794;17.616;2024-03-17T14:57:24;3.20;99.70
56771;DHT22;42641;59.794;17.616;2024-03-17T14:59:50;3.10;99.20
56771;DHT22;42641;59.794;17.616;2024-03-17T15:02:16;3.00;99.60
56771;DHT22;42641;59.794;17.616;2024-03-17T15:04:43;3.00;99.50
56771;DHT22;42641;59.794;17.616;2024-03-17T15:07:09;2.90;99.90
56771;DHT22;42641;59.794;17.616;2024-03-17T15:09:35;2.80;99.50
56771;DHT22;42641;59.794;17.616;2024-03-17T15:12:02;2.70;99.90
56771;DHT22;42641;59.794;17.616;2024-03-17T15:14:29;2.50;99.90
56771;DHT22;42641;59.794;17.616;2024-03-17T15:16:57;2.30;99.90
56771;DHT22;42641;59.794;17.616;2024-03-17T15:19:25;2.10;99.90
56771;DHT22;42641;59.794;17.616;2024-03-17T15:21:52;1.90;99.90
56771;DHT22;42641;59.794;17.616;2024-03-17T15:24:19;1.70;99.90
56771;DHT22;42641;59.794;17.616;2024-03-17T15:26:45;1.70;99.90
56771;DHT22;42641;59.794;17.616;2024-03-17T15:29:12;1.60;99.90
56771;DHT22;42641;59.794;17.616;2024-03-17T15:31:38;1.40;99.90
56771;DHT22;42641;59.794;17.616;2024-03-17T15:34:07;1.40;99.90
56771;DHT22;42641;59.794;17.616;2024-03-17T15:36:33;1.30;99.90
56771;DHT22;42641;59.794;17.616;2024-03-17T15:39:00;1.20;99.90
56771;DHT22;42641;59.794;17.616;2024-03-17T15:41:26;1.10;99.90
56771;DHT22;42641;59.794;17.616;2024-03-17T15:43:52;1.20;99.90